Time,TemperatureF,DewpointF,PressureIn,WindDirection,WindDirectionDegrees,WindSpeedMPH,WindSpeedGustMPH,Humidity,HourlyPrecipIn,Conditions,Clouds,dailyrainin,SolarRadiationWatts/m^2,SoftwareType,DateUTC
2013-02-05 00:00:00,29.8,6.1,29.92,ESE,110,2.0,-999.0,36,0.00,,,0.00,0,WeatherHawk,2013-02-05 05:00:00,
2013-02-05 00:05:00,29.9,5.6,29.92,ENE,76,3.0,-999.0,35,0.00,,,0.00,0,WeatherHawk,2013-02-05 05:05:00,
2013-02-05 00:10:00,29.9,6.2,29.93,ESE,113,0.0,-999.0,36,0.00,,,0.00,0,WeatherHawk,2013-02-05 05:10:00,
2013-02-05 00:15:00,30.0,6.9,29.91,ESE,121,1.0,-999.0,37,0.00,,,0.00,1,WeatherHawk,2013-02-05 05:15:00,
2013-02-05 00:20:00,30.2,6.5,29.92,ESE,119,2.0,-999.0,36,0.00,,,0.00,0,WeatherHawk,2013-02-05 05:20:00,
2013-02-05 00:25:00,30.2,6.5,29.92,SE,125,3.0,-999.0,36,0.00,,,0.00,0,WeatherHawk,2013-02-05 05:25:00,
2013-02-05 00:30:00,30.2,6.5,29.91,ESE,104,3.0,-999.0,36,0.00,,,0.00,0,WeatherHawk,2013-02-05 05:30:00,
2013-02-05 00:35:00,30.3,6.0,29.91,ESE,119,4.0,-999.0,35,0.00,,,0.00,1,WeatherHawk,2013-02-05 05:35:00,
2013-02-05 00:40:00,30.3,7.2,29.91,ESE,107,2.0,-999.0,37,0.00,,,0.00,1,WeatherHawk,2013-02-05 05:40:00,
2013-02-05 00:45:00,30.2,7.1,29.92,ESE,111,0.0,-999.0,37,0.00,,,0.00,0,WeatherHawk,2013-02-05 05:45:00,
2013-02-05 00:50:00,30.2,6.5,29.91,NE,48,0.0,-999.0,36,0.00,,,0.00,0,WeatherHawk,2013-02-05 05:50:00,
2013-02-05 00:55:00,30.1,8.2,29.92,East,94,0.0,-999.0,39,0.00,,,0.00,0,WeatherHawk,2013-02-05 05:55:00,
2013-02-05 01:00:00,30.1,7.6,29.90,NE,56,2.0,-999.0,38,0.00,,,0.00,0,WeatherHawk,2013-02-05 06:00:00,
2013-02-05 01:05:00,30.2,8.3,29.92,NE,56,1.0,-999.0,39,0.00,,,0.00,2,WeatherHawk,2013-02-05 06:05:00,
2013-02-05 01:10:00,30.1,8.2,29.92,NE,55,2.0,-999.0,39,0.00,,,0.00,1,WeatherHawk,2013-02-05 06:10:00,
2013-02-05 01:15:00,30.1,7.6,29.91,NE,43,0.0,-999.0,38,0.00,,,0.00,0,WeatherHawk,2013-02-05 06:15:00,
2013-02-05 01:20:00,29.8,9.0,29.92,NE,39,2.0,-999.0,41,0.00,,,0.00,0,WeatherHawk,2013-02-05 06:20:00,
2013-02-05 01:25:00,30.0,8.7,29.91,NE,44,0.0,-999.0,40,0.00,,,0.00,0,WeatherHawk,2013-02-05 06:25:00,
2013-02-05 01:30:00,30.0,8.1,29.92,NE,53,1.0,-999.0,39,0.00,,,0.00,1,WeatherHawk,2013-02-05 06:30:00,
2013-02-05 01:35:00,29.9,8.6,29.91,East,86,1.0,-999.0,40,0.00,,,0.00,0,WeatherHawk,2013-02-05 06:35:00,
2013-02-05 01:40:00,29.9,9.1,29.91,NE,47,0.0,-999.0,41,0.00,,,0.00,0,WeatherHawk,2013-02-05 06:40:00,
2013-02-05 01:45:00,30.0,8.6,29.90,ENE,69,1.0,-999.0,40,0.00,,,0.00,1,WeatherHawk,2013-02-05 06:45:00,
2013-02-05 01:50:00,30.1,8.1,29.91,NE,52,2.0,-999.0,39,0.00,,,0.00,0,WeatherHawk,2013-02-05 06:50:00,
2013-02-05 01:55:00,30.1,8.2,29.91,ENE,68,0.0,-999.0,39,0.00,,,0.00,0,WeatherHawk,2013-02-05 06:55:00,
2013-02-05 02:00:00,29.8,8.5,29.91,ENE,70,0.0,-999.0,40,0.00,,,0.00,0,WeatherHawk,2013-02-05 07:00:00,
2013-02-05 02:05:00,29.9,9.1,29.91,ENE,69,0.0,-999.0,41,0.00,,,0.00,1,WeatherHawk,2013-02-05 07:05:00,
2013-02-05 02:10:00,29.6,9.4,29.91,East,95,0.0,-999.0,42,0.00,,,0.00,0,WeatherHawk,2013-02-05 07:10:00,
2013-02-05 02:15:00,29.3,10.2,29.91,ENE,78,0.0,-999.0,44,0.00,,,0.00,0,WeatherHawk,2013-02-05 07:15:00,
2013-02-05 02:20:00,29.4,10.7,29.90,East,98,0.0,-999.0,45,0.00,,,0.00,0,WeatherHawk,2013-02-05 07:20:00,
2013-02-05 02:25:00,29.5,11.3,29.90,ESE,108,0.0,-999.0,46,0.00,,,0.00,0,WeatherHawk,2013-02-05 07:25:00,
2013-02-05 02:30:00,29.6,10.9,29.91,ESE,102,0.0,-999.0,45,0.00,,,0.00,1,WeatherHawk,2013-02-05 07:30:00,
2013-02-05 02:35:00,29.6,10.4,29.91,ENE,77,0.0,-999.0,44,0.00,,,0.00,0,WeatherHawk,2013-02-05 07:35:00,
2013-02-05 02:40:00,29.6,11.4,29.91,ENE,68,0.0,-999.0,46,0.00,,,0.00,0,WeatherHawk,2013-02-05 07:40:00,
2013-02-05 02:45:00,29.8,11.6,29.91,ENE,69,0.0,-999.0,46,0.00,,,0.00,0,WeatherHawk,2013-02-05 07:45:00,
2013-02-05 02:50:00,29.9,10.7,29.90,ENE,67,0.0,-999.0,44,0.00,,,0.00,0,WeatherHawk,2013-02-05 07:50:00,
2013-02-05 02:55:00,29.8,11.1,29.90,ENE,63,0.0,-999.0,45,0.00,,,0.00,0,WeatherHawk,2013-02-05 07:55:00,
2013-02-05 03:00:00,30.0,10.3,29.89,ENE,73,0.0,-999.0,43,0.00,,,0.00,0,WeatherHawk,2013-02-05 08:00:00,
2013-02-05 03:05:00,30.0,9.7,29.90,NE,53,0.0,-999.0,42,0.00,,,0.00,0,WeatherHawk,2013-02-05 08:05:00,
2013-02-05 03:10:00,29.7,10.5,29.90,East,83,0.0,-999.0,44,0.00,,,0.00,0,WeatherHawk,2013-02-05 08:10:00,
2013-02-05 03:15:00,29.7,11.5,29.89,East,79,0.0,-999.0,46,0.00,,,0.00,0,WeatherHawk,2013-02-05 08:15:00,
2013-02-05 03:20:00,29.5,12.3,29.88,ENE,76,1.0,-999.0,48,0.00,,,0.00,0,WeatherHawk,2013-02-05 08:20:00,
2013-02-05 03:25:00,29.5,11.8,29.88,ENE,58,2.0,-999.0,47,0.00,,,0.00,0,WeatherHawk,2013-02-05 08:25:00,
2013-02-05 03:30:00,29.2,11.5,29.89,ENE,68,0.0,-999.0,47,0.00,,,0.00,0,WeatherHawk,2013-02-05 08:30:00,
2013-02-05 03:35:00,29.3,11.6,29.88,ENE,76,0.0,-999.0,47,0.00,,,0.00,0,WeatherHawk,2013-02-05 08:35:00,
2013-02-05 03:40:00,29.1,11.4,29.88,ENE,76,0.0,-999.0,47,0.00,,,0.00,0,WeatherHawk,2013-02-05 08:40:00,
2013-02-05 03:45:00,28.9,11.7,29.88,ENE,76,0.0,-999.0,48,0.00,,,0.00,0,WeatherHawk,2013-02-05 08:45:00,
2013-02-05 03:50:00,28.5,12.2,29.88,ENE,67,0.0,-999.0,50,0.00,,,0.00,0,WeatherHawk,2013-02-05 08:50:00,
2013-02-05 03:55:00,28.1,13.2,29.88,ENE,67,0.0,-999.0,53,0.00,,,0.00,0,WeatherHawk,2013-02-05 08:55:00,
2013-02-05 04:00:00,28.9,13.1,29.88,ENE,67,0.0,-999.0,51,0.00,,,0.00,0,WeatherHawk,2013-02-05 09:00:00,
2013-02-05 04:05:00,28.7,12.0,29.89,ENE,67,0.0,-999.0,49,0.00,,,0.00,0,WeatherHawk,2013-02-05 09:05:00,
2013-02-05 04:10:00,28.5,12.7,29.89,ENE,67,0.0,-999.0,51,0.00,,,0.00,0,WeatherHawk,2013-02-05 09:10:00,
2013-02-05 04:15:00,28.7,12.9,29.90,ENE,67,0.0,-999.0,51,0.00,,,0.00,0,WeatherHawk,2013-02-05 09:15:00,
2013-02-05 04:20:00,29.3,13.4,29.89,ENE,67,0.0,-999.0,51,0.00,,,0.00,0,WeatherHawk,2013-02-05 09:20:00,
2013-02-05 04:25:00,29.4,12.1,29.90,ENE,67,0.0,-999.0,48,0.00,,,0.00,0,WeatherHawk,2013-02-05 09:25:00,
2013-02-05 04:30:00,28.9,12.1,29.89,ENE,67,0.0,-999.0,49,0.00,,,0.00,0,WeatherHawk,2013-02-05 09:30:00,
2013-02-05 04:35:00,28.9,12.2,29.89,ENE,67,0.0,-999.0,49,0.00,,,0.00,0,WeatherHawk,2013-02-05 09:35:00,
2013-02-05 04:40:00,28.8,11.1,29.90,NE,51,0.0,-999.0,47,0.00,,,0.00,1,WeatherHawk,2013-02-05 09:40:00,
2013-02-05 04:45:00,28.6,12.4,29.90,NE,51,0.0,-999.0,50,0.00,,,0.00,0,WeatherHawk,2013-02-05 09:45:00,
2013-02-05 04:50:00,28.9,11.7,29.89,NNE,17,0.0,-999.0,48,0.00,,,0.00,1,WeatherHawk,2013-02-05 09:50:00,
2013-02-05 04:55:00,29.2,12.0,29.88,NNE,17,0.0,-999.0,48,0.00,,,0.00,2,WeatherHawk,2013-02-05 09:55:00,
2013-02-05 05:00:00,29.0,12.7,29.90,NNE,17,0.0,-999.0,50,0.00,,,0.00,1,WeatherHawk,2013-02-05 10:00:00,
2013-02-05 05:05:00,29.1,12.3,29.89,NNE,17,0.0,-999.0,49,0.00,,,0.00,0,WeatherHawk,2013-02-05 10:05:00,
2013-02-05 05:10:00,29.6,13.2,29.89,NNE,17,0.0,-999.0,50,0.00,,,0.00,1,WeatherHawk,2013-02-05 10:10:00,
2013-02-05 05:15:00,28.8,12.5,29.90,NNE,17,0.0,-999.0,50,0.00,,,0.00,1,WeatherHawk,2013-02-05 10:15:00,
2013-02-05 05:20:00,29.1,14.2,29.89,NNE,14,0.0,-999.0,53,0.00,,,0.00,0,WeatherHawk,2013-02-05 10:20:00,
2013-02-05 05:25:00,28.9,15.2,29.89,North,0,0.0,-999.0,56,0.00,,,0.00,0,WeatherHawk,2013-02-05 10:25:00,
2013-02-05 05:30:00,29.0,15.3,29.89,North,0,0.0,-999.0,56,0.00,,,0.00,0,WeatherHawk,2013-02-05 10:30:00,
2013-02-05 05:35:00,28.8,15.5,29.89,NE,38,0.0,-999.0,57,0.00,,,0.00,0,WeatherHawk,2013-02-05 10:35:00,
2013-02-05 05:40:00,29.2,17.0,29.90,NE,38,0.0,-999.0,60,0.00,,,0.00,0,WeatherHawk,2013-02-05 10:40:00,
2013-02-05 05:45:00,29.3,16.4,29.90,NE,38,0.0,-999.0,58,0.00,,,0.00,0,WeatherHawk,2013-02-05 10:45:00,
2013-02-05 05:50:00,29.5,15.3,29.89,NE,38,0.0,-999.0,55,0.00,,,0.00,0,WeatherHawk,2013-02-05 10:50:00,
2013-02-05 05:55:00,29.3,16.4,29.89,NE,38,0.0,-999.0,58,0.00,,,0.00,0,WeatherHawk,2013-02-05 10:55:00,
2013-02-05 06:00:00,29.2,17.1,29.90,NE,38,0.0,-999.0,60,0.00,,,0.00,0,WeatherHawk,2013-02-05 11:00:00,
2013-02-05 06:05:00,29.2,17.0,29.91,NE,38,0.0,-999.0,60,0.00,,,0.00,0,WeatherHawk,2013-02-05 11:05:00,
2013-02-05 06:10:00,29.3,16.8,29.90,NE,38,0.0,-999.0,59,0.00,,,0.00,0,WeatherHawk,2013-02-05 11:10:00,
2013-02-05 06:15:00,29.4,17.3,29.90,NE,38,0.0,-999.0,60,0.00,,,0.00,0,WeatherHawk,2013-02-05 11:15:00,
2013-02-05 06:20:00,29.5,16.6,29.90,NE,38,0.0,-999.0,58,0.00,,,0.00,0,WeatherHawk,2013-02-05 11:20:00,
2013-02-05 06:25:00,29.7,15.5,29.90,NE,38,0.0,-999.0,55,0.00,,,0.00,0,WeatherHawk,2013-02-05 11:25:00,
2013-02-05 06:30:00,29.9,14.9,29.90,NE,38,0.0,-999.0,53,0.00,,,0.00,0,WeatherHawk,2013-02-05 11:30:00,
2013-02-05 06:35:00,29.8,13.9,29.91,NE,38,0.0,-999.0,51,0.00,,,0.00,0,WeatherHawk,2013-02-05 11:35:00,
2013-02-05 06:40:00,29.9,16.5,29.90,NE,38,0.0,-999.0,57,0.00,,,0.00,0,WeatherHawk,2013-02-05 11:40:00,
2013-02-05 06:45:00,29.9,15.7,29.90,NE,38,0.0,-999.0,55,0.00,,,0.00,0,WeatherHawk,2013-02-05 11:45:00,
2013-02-05 06:50:00,30.3,15.2,29.90,NE,38,0.0,-999.0,53,0.00,,,0.00,0,WeatherHawk,2013-02-05 11:50:00,
2013-02-05 06:55:00,30.1,15.5,29.90,NE,35,0.0,-999.0,54,0.00,,,0.00,1,WeatherHawk,2013-02-05 11:55:00,
2013-02-05 07:00:00,30.3,14.4,29.91,NE,54,0.0,-999.0,51,0.00,,,0.00,1,WeatherHawk,2013-02-05 12:00:00,
2013-02-05 07:05:00,30.4,14.0,29.92,NNE,23,0.0,-999.0,50,0.00,,,0.00,2,WeatherHawk,2013-02-05 12:05:00,
2013-02-05 07:10:00,30.5,13.2,29.91,NE,41,0.0,-999.0,48,0.00,,,0.00,1,WeatherHawk,2013-02-05 12:10:00,
2013-02-05 07:15:00,30.4,13.1,29.90,NE,41,0.0,-999.0,48,0.00,,,0.00,3,WeatherHawk,2013-02-05 12:15:00,
2013-02-05 07:20:00,30.4,13.1,29.90,NE,46,0.0,-999.0,48,0.00,,,0.00,3,WeatherHawk,2013-02-05 12:20:00,
2013-02-05 07:25:00,30.5,13.2,29.91,NE,46,0.0,-999.0,48,0.00,,,0.00,7,WeatherHawk,2013-02-05 12:25:00,
2013-02-05 07:30:00,30.4,13.6,29.90,NE,46,0.0,-999.0,49,0.00,,,0.00,8,WeatherHawk,2013-02-05 12:30:00,
2013-02-05 07:35:00,30.7,12.9,29.91,NNE,14,0.0,-999.0,47,0.00,,,0.00,8,WeatherHawk,2013-02-05 12:35:00,
2013-02-05 07:40:00,30.3,15.2,29.92,WNW,300,0.0,-999.0,53,0.00,,,0.00,14,WeatherHawk,2013-02-05 12:40:00,
2013-02-05 07:45:00,30.5,15.0,29.92,WNW,290,0.0,-999.0,52,0.00,,,0.00,20,WeatherHawk,2013-02-05 12:45:00,
2013-02-05 07:50:00,30.7,15.2,29.92,WNW,290,0.0,-999.0,52,0.00,,,0.00,13,WeatherHawk,2013-02-05 12:50:00,
2013-02-05 07:55:00,30.8,14.4,29.93,WNW,290,0.0,-999.0,50,0.00,,,0.00,16,WeatherHawk,2013-02-05 12:55:00,
2013-02-05 08:00:00,30.7,14.3,29.93,WNW,290,0.0,-999.0,50,0.00,,,0.00,14,WeatherHawk,2013-02-05 13:00:00,
2013-02-05 08:10:00,30.9,15.4,29.93,WNW,290,0.0,-999.0,52,0.00,,,0.00,25,WeatherHawk,2013-02-05 13:10:00,
2013-02-05 08:15:00,31.0,14.5,29.93,WNW,290,0.0,-999.0,50,0.00,,,0.00,22,WeatherHawk,2013-02-05 13:15:00,
2013-02-05 08:20:00,31.1,14.2,29.93,WNW,290,0.0,-999.0,49,0.00,,,0.00,40,WeatherHawk,2013-02-05 13:20:00,
2013-02-05 08:25:00,31.2,14.3,29.92,WNW,290,0.0,-999.0,49,0.00,,,0.00,41,WeatherHawk,2013-02-05 13:25:00,
2013-02-05 08:30:00,31.4,14.0,29.93,WNW,290,0.0,-999.0,48,0.00,,,0.00,52,WeatherHawk,2013-02-05 13:30:00,
2013-02-05 08:35:00,31.6,13.2,29.93,NE,34,0.0,-999.0,46,0.00,,,0.00,76,WeatherHawk,2013-02-05 13:35:00,
2013-02-05 08:40:00,31.5,13.6,29.93,NE,45,0.0,-999.0,47,0.00,,,0.00,73,WeatherHawk,2013-02-05 13:40:00,
2013-02-05 08:45:00,31.7,13.8,29.93,North,7,2.0,-999.0,47,0.00,,,0.00,70,WeatherHawk,2013-02-05 13:45:00,
2013-02-05 08:50:00,32.1,14.2,29.93,North,351,0.0,-999.0,47,0.00,,,0.00,92,WeatherHawk,2013-02-05 13:50:00,
2013-02-05 08:55:00,32.1,15.1,29.93,North,351,0.0,-999.0,49,0.00,,,0.00,98,WeatherHawk,2013-02-05 13:55:00,
2013-02-05 09:00:00,31.9,15.0,29.92,NE,36,3.0,-999.0,49,0.00,,,0.00,87,WeatherHawk,2013-02-05 14:00:00,
2013-02-05 09:05:00,31.8,15.3,29.93,NNE,26,2.0,-999.0,50,0.00,,,0.00,73,WeatherHawk,2013-02-05 14:05:00,
2013-02-05 09:10:00,31.7,14.8,29.93,NNE,29,3.0,-999.0,49,0.00,,,0.00,73,WeatherHawk,2013-02-05 14:10:00,
2013-02-05 09:15:00,32.1,15.6,29.93,NE,36,0.0,-999.0,50,0.00,,,0.00,70,WeatherHawk,2013-02-05 14:15:00,
2013-02-05 09:20:00,32.1,14.7,29.93,NE,36,0.0,-999.0,48,0.00,,,0.00,99,WeatherHawk,2013-02-05 14:20:00,
2013-02-05 09:25:00,32.2,14.2,29.94,NE,35,0.0,-999.0,47,0.00,,,0.00,101,WeatherHawk,2013-02-05 14:25:00,
2013-02-05 09:30:00,32.8,14.8,29.93,NE,38,0.0,-999.0,47,0.00,,,0.00,102,WeatherHawk,2013-02-05 14:30:00,
2013-02-05 09:35:00,32.0,14.1,29.94,NNW,344,2.0,-999.0,47,0.00,,,0.00,104,WeatherHawk,2013-02-05 14:35:00,
2013-02-05 09:40:00,32.0,14.1,29.94,North,9,3.0,-999.0,47,0.00,,,0.00,93,WeatherHawk,2013-02-05 14:40:00,
2013-02-05 09:45:00,32.3,15.3,29.94,NNW,330,5.0,-999.0,49,0.00,,,0.00,142,WeatherHawk,2013-02-05 14:45:00,
2013-02-05 09:50:00,33.9,15.8,29.94,NW,321,0.0,-999.0,47,0.00,,,0.00,287,WeatherHawk,2013-02-05 14:50:00,
2013-02-05 09:55:00,33.1,13.5,29.94,NNW,340,2.0,-999.0,44,0.00,,,0.00,171,WeatherHawk,2013-02-05 14:55:00,
2013-02-05 10:00:00,33.4,14.4,29.94,NNW,327,0.0,-999.0,45,0.00,,,0.00,131,WeatherHawk,2013-02-05 15:00:00,
2013-02-05 10:05:00,33.1,14.1,29.93,North,0,3.0,-999.0,45,0.00,,,0.00,128,WeatherHawk,2013-02-05 15:05:00,
2013-02-05 10:10:00,33.0,14.0,29.94,NNW,344,1.0,-999.0,45,0.00,,,0.00,95,WeatherHawk,2013-02-05 15:10:00,
2013-02-05 10:15:00,32.9,13.9,29.93,North,9,1.0,-999.0,45,0.00,,,0.00,95,WeatherHawk,2013-02-05 15:15:00,
2013-02-05 10:20:00,33.1,14.6,29.93,NNE,18,2.0,-999.0,46,0.00,,,0.00,109,WeatherHawk,2013-02-05 15:20:00,
2013-02-05 10:25:00,33.3,14.8,29.93,WNW,303,2.0,-999.0,46,0.00,,,0.00,126,WeatherHawk,2013-02-05 15:25:00,
2013-02-05 10:30:00,33.8,15.2,29.93,WNW,288,2.0,-999.0,46,0.00,,,0.00,132,WeatherHawk,2013-02-05 15:30:00,
2013-02-05 10:35:00,33.9,15.3,29.94,NNW,347,1.0,-999.0,46,0.00,,,0.00,126,WeatherHawk,2013-02-05 15:35:00,
2013-02-05 10:40:00,33.2,14.2,29.93,NE,35,3.0,-999.0,45,0.00,,,0.00,117,WeatherHawk,2013-02-05 15:40:00,
2013-02-05 10:45:00,33.6,14.0,29.93,NNW,346,0.0,-999.0,44,0.00,,,0.00,111,WeatherHawk,2013-02-05 15:45:00,
2013-02-05 10:50:00,33.5,13.4,29.93,NNE,13,0.0,-999.0,43,0.00,,,0.00,124,WeatherHawk,2013-02-05 15:50:00,
2013-02-05 10:55:00,33.6,13.6,29.94,NNE,29,0.0,-999.0,43,0.00,,,0.00,129,WeatherHawk,2013-02-05 15:55:00,
2013-02-05 11:00:00,34.0,13.9,29.93,ENE,60,0.0,-999.0,43,0.00,,,0.00,118,WeatherHawk,2013-02-05 16:00:00,
2013-02-05 11:05:00,33.9,13.3,29.94,North,1,2.0,-999.0,42,0.00,,,0.00,136,WeatherHawk,2013-02-05 16:05:00,
2013-02-05 11:10:00,34.1,12.9,29.94,North,351,3.0,-999.0,41,0.00,,,0.00,138,WeatherHawk,2013-02-05 16:10:00,
2013-02-05 11:15:00,34.7,13.4,29.93,NNW,338,1.0,-999.0,41,0.00,,,0.00,140,WeatherHawk,2013-02-05 16:15:00,
2013-02-05 11:20:00,34.1,12.9,29.93,NNW,344,2.0,-999.0,41,0.00,,,0.00,128,WeatherHawk,2013-02-05 16:20:00,
2013-02-05 11:25:00,34.1,13.4,29.94,NNW,344,3.0,-999.0,42,0.00,,,0.00,148,WeatherHawk,2013-02-05 16:25:00,
2013-02-05 11:30:00,34.6,13.3,29.95,North,351,0.0,-999.0,41,0.00,,,0.00,101,WeatherHawk,2013-02-05 16:30:00,
2013-02-05 11:35:00,34.4,12.6,29.93,East,79,0.0,-999.0,40,0.00,,,0.00,110,WeatherHawk,2013-02-05 16:35:00,
2013-02-05 11:40:00,34.1,12.4,29.91,NE,54,1.0,-999.0,40,0.00,,,0.00,81,WeatherHawk,2013-02-05 16:40:00,
2013-02-05 11:45:00,34.3,13.0,29.92,ENE,71,2.0,-999.0,41,0.00,,,0.00,98,WeatherHawk,2013-02-05 16:45:00,
2013-02-05 11:50:00,34.4,13.7,29.92,NE,36,2.0,-999.0,42,0.00,,,0.00,119,WeatherHawk,2013-02-05 16:50:00,
2013-02-05 11:55:00,34.2,13.0,29.92,NE,40,2.0,-999.0,41,0.00,,,0.00,141,WeatherHawk,2013-02-05 16:55:00,
2013-02-05 12:00:00,34.7,12.3,29.92,NNE,28,2.0,-999.0,39,0.00,,,0.00,168,WeatherHawk,2013-02-05 17:00:00,
2013-02-05 12:05:00,34.4,12.0,29.92,NNE,21,0.0,-999.0,39,0.00,,,0.00,147,WeatherHawk,2013-02-05 17:05:00,
2013-02-05 12:10:00,34.6,12.2,29.92,North,6,0.0,-999.0,39,0.00,,,0.00,131,WeatherHawk,2013-02-05 17:10:00,
2013-02-05 12:15:00,34.5,12.1,29.91,NE,37,0.0,-999.0,39,0.00,,,0.00,173,WeatherHawk,2013-02-05 17:15:00,
2013-02-05 12:20:00,34.4,12.6,29.91,NE,43,4.0,-999.0,40,0.00,,,0.00,173,WeatherHawk,2013-02-05 17:20:00,
2013-02-05 12:25:00,35.1,13.8,29.91,NE,37,4.0,-999.0,41,0.00,,,0.00,158,WeatherHawk,2013-02-05 17:25:00,
2013-02-05 12:30:00,34.9,12.5,29.90,North,350,3.0,-999.0,39,0.00,,,0.00,145,WeatherHawk,2013-02-05 17:30:00,
2013-02-05 12:35:00,34.7,11.2,29.90,NNE,24,3.0,-999.0,37,0.00,,,0.00,157,WeatherHawk,2013-02-05 17:35:00,
2013-02-05 12:40:00,34.8,10.6,29.90,NE,53,6.0,-999.0,36,0.00,,,0.00,248,WeatherHawk,2013-02-05 17:40:00,
2013-02-05 12:45:00,36.8,13.0,29.89,North,7,3.0,-999.0,37,0.00,,,0.00,274,WeatherHawk,2013-02-05 17:45:00,
2013-02-05 12:50:00,35.8,10.2,29.88,NNE,33,3.0,-999.0,34,0.00,,,0.00,248,WeatherHawk,2013-02-05 17:50:00,
2013-02-05 12:55:00,36.4,11.3,29.89,NE,52,4.0,-999.0,35,0.00,,,0.00,238,WeatherHawk,2013-02-05 17:55:00,
2013-02-05 13:00:00,35.9,10.3,29.89,ENE,60,2.0,-999.0,34,0.00,,,0.00,197,WeatherHawk,2013-02-05 18:00:00,
2013-02-05 13:05:00,35.4,8.5,29.89,NNE,31,5.0,-999.0,32,0.00,,,0.00,190,WeatherHawk,2013-02-05 18:05:00,
2013-02-05 13:10:00,35.4,8.5,29.88,NE,52,5.0,-999.0,32,0.00,,,0.00,182,WeatherHawk,2013-02-05 18:10:00,
2013-02-05 13:15:00,36.3,10.0,29.88,NNE,18,0.0,-999.0,33,0.00,,,0.00,164,WeatherHawk,2013-02-05 18:15:00,
2013-02-05 13:20:00,36.5,10.1,29.88,NNE,12,0.0,-999.0,33,0.00,,,0.00,167,WeatherHawk,2013-02-05 18:20:00,
2013-02-05 13:25:00,35.9,9.6,29.87,NW,321,4.0,-999.0,33,0.00,,,0.00,168,WeatherHawk,2013-02-05 18:25:00,
2013-02-05 13:30:00,36.1,8.5,29.87,NNE,15,2.0,-999.0,31,0.00,,,0.00,167,WeatherHawk,2013-02-05 18:30:00,
2013-02-05 13:35:00,35.8,8.9,29.88,NNE,24,3.0,-999.0,32,0.00,,,0.00,161,WeatherHawk,2013-02-05 18:35:00,
2013-02-05 13:40:00,36.0,8.3,29.86,NNE,24,2.0,-999.0,31,0.00,,,0.00,169,WeatherHawk,2013-02-05 18:40:00,
2013-02-05 13:45:00,35.8,6.7,29.86,North,6,2.0,-999.0,29,0.00,,,0.00,180,WeatherHawk,2013-02-05 18:45:00,
2013-02-05 13:50:00,36.0,8.4,29.88,North,10,1.0,-999.0,31,0.00,,,0.00,180,WeatherHawk,2013-02-05 18:50:00,
2013-02-05 13:55:00,36.1,7.7,29.87,NNE,22,1.0,-999.0,30,0.00,,,0.00,187,WeatherHawk,2013-02-05 18:55:00,
2013-02-05 14:00:00,36.7,9.7,29.87,NE,47,5.0,-999.0,32,0.00,,,0.00,157,WeatherHawk,2013-02-05 19:00:00,
2013-02-05 14:05:00,35.9,7.5,29.88,NNE,33,0.0,-999.0,30,0.00,,,0.00,130,WeatherHawk,2013-02-05 19:05:00,
2013-02-05 14:10:00,36.3,8.6,29.87,NE,34,3.0,-999.0,31,0.00,,,0.00,110,WeatherHawk,2013-02-05 19:10:00,
2013-02-05 14:15:00,36.2,8.5,29.87,North,0,0.0,-999.0,31,0.00,,,0.00,117,WeatherHawk,2013-02-05 19:15:00,
2013-02-05 14:20:00,36.3,9.3,29.87,NE,46,3.0,-999.0,32,0.00,,,0.00,130,WeatherHawk,2013-02-05 19:20:00,
2013-02-05 14:25:00,35.9,7.5,29.87,NE,36,5.0,-999.0,30,0.00,,,0.00,128,WeatherHawk,2013-02-05 19:25:00,
2013-02-05 14:30:00,36.1,8.4,29.87,NE,44,4.0,-999.0,31,0.00,,,0.00,133,WeatherHawk,2013-02-05 19:30:00,
2013-02-05 14:35:00,36.1,8.4,29.86,NNE,26,3.0,-999.0,31,0.00,,,0.00,144,WeatherHawk,2013-02-05 19:35:00,
2013-02-05 14:40:00,36.2,9.9,29.87,NE,44,3.0,-999.0,33,0.00,,,0.00,151,WeatherHawk,2013-02-05 19:40:00,
2013-02-05 14:45:00,36.5,9.4,29.86,ENE,63,4.0,-999.0,32,0.00,,,0.00,148,WeatherHawk,2013-02-05 19:45:00,
2013-02-05 14:50:00,35.8,9.6,29.86,ENE,59,7.0,-999.0,33,0.00,,,0.00,126,WeatherHawk,2013-02-05 19:50:00,
2013-02-05 14:55:00,36.6,10.2,29.86,ENE,64,4.0,-999.0,33,0.00,,,0.00,126,WeatherHawk,2013-02-05 19:55:00,
2013-02-05 15:00:00,36.5,9.5,29.86,NE,56,4.0,-999.0,32,0.00,,,0.00,112,WeatherHawk,2013-02-05 20:00:00,
2013-02-05 15:10:00,36.7,9.7,29.86,NE,55,2.0,-999.0,32,0.00,,,0.00,99,WeatherHawk,2013-02-05 20:10:00,
2013-02-05 15:15:00,36.7,9.7,29.86,ENE,73,3.0,-999.0,32,0.00,,,0.00,83,WeatherHawk,2013-02-05 20:15:00,
2013-02-05 15:20:00,36.6,8.9,29.87,NE,52,3.0,-999.0,31,0.00,,,0.00,78,WeatherHawk,2013-02-05 20:20:00,
2013-02-05 15:25:00,36.7,9.6,29.86,East,81,1.0,-999.0,32,0.00,,,0.00,62,WeatherHawk,2013-02-05 20:25:00,
2013-02-05 15:30:00,36.3,6.3,29.86,ENE,65,5.0,-999.0,28,0.00,,,0.00,73,WeatherHawk,2013-02-05 20:30:00,
2013-02-05 15:35:00,36.5,7.3,29.86,ENE,57,1.0,-999.0,29,0.00,,,0.00,62,WeatherHawk,2013-02-05 20:35:00,
2013-02-05 15:40:00,36.5,7.3,29.86,ENE,64,2.0,-999.0,29,0.00,,,0.00,75,WeatherHawk,2013-02-05 20:40:00,
2013-02-05 15:45:00,36.2,7.8,29.87,ENE,61,2.0,-999.0,30,0.00,,,0.00,67,WeatherHawk,2013-02-05 20:45:00,
2013-02-05 15:50:00,36.2,8.5,29.87,ENE,68,2.0,-999.0,31,0.00,,,0.00,58,WeatherHawk,2013-02-05 20:50:00,
2013-02-05 15:55:00,35.9,7.6,29.87,ENE,67,3.0,-999.0,30,0.00,,,0.00,53,WeatherHawk,2013-02-05 20:55:00,
2013-02-05 16:00:00,35.9,9.0,29.88,ENE,58,0.0,-999.0,32,0.00,,,0.00,29,WeatherHawk,2013-02-05 21:00:00,
2013-02-05 16:05:00,35.9,9.0,29.87,NE,54,1.0,-999.0,32,0.00,,,0.00,28,WeatherHawk,2013-02-05 21:05:00,
2013-02-05 16:10:00,35.9,9.6,29.87,NE,43,0.0,-999.0,33,0.00,,,0.00,23,WeatherHawk,2013-02-05 21:10:00,
2013-02-05 16:15:00,35.5,9.9,29.87,ENE,60,1.0,-999.0,34,0.00,,,0.00,20,WeatherHawk,2013-02-05 21:15:00,
2013-02-05 16:20:00,35.7,10.7,29.87,ENE,60,0.0,-999.0,35,0.00,,,0.00,21,WeatherHawk,2013-02-05 21:20:00,
2013-02-05 16:25:00,35.3,11.0,29.87,ENE,59,0.0,-999.0,36,0.00,,,0.00,17,WeatherHawk,2013-02-05 21:25:00,
2013-02-05 16:30:00,35.4,12.3,29.88,ENE,59,0.0,-999.0,38,0.00,,,0.00,13,WeatherHawk,2013-02-05 21:30:00,
2013-02-05 16:35:00,35.5,11.2,29.88,ENE,58,0.0,-999.0,36,0.00,,,0.00,11,WeatherHawk,2013-02-05 21:35:00,
2013-02-05 16:40:00,35.6,9.3,29.88,North,11,0.0,-999.0,33,0.00,,,0.00,14,WeatherHawk,2013-02-05 21:40:00,
2013-02-05 16:45:00,35.2,11.0,29.88,NE,43,0.0,-999.0,36,0.00,,,0.00,19,WeatherHawk,2013-02-05 21:45:00,
2013-02-05 16:50:00,35.0,12.0,29.88,NE,43,0.0,-999.0,38,0.00,,,0.00,26,WeatherHawk,2013-02-05 21:50:00,
2013-02-05 16:55:00,35.0,12.0,29.88,NE,42,0.0,-999.0,38,0.00,,,0.00,16,WeatherHawk,2013-02-05 21:55:00,
2013-02-05 17:00:00,35.1,12.0,29.88,NE,42,0.0,-999.0,38,0.00,,,0.00,13,WeatherHawk,2013-02-05 22:00:00,
2013-02-05 17:05:00,35.1,12.1,29.88,NE,41,1.0,-999.0,38,0.00,,,0.00,11,WeatherHawk,2013-02-05 22:05:00,
2013-02-05 17:10:00,35.1,12.1,29.88,North,8,0.0,-999.0,38,0.00,,,0.00,5,WeatherHawk,2013-02-05 22:10:00,
2013-02-05 17:15:00,34.7,11.7,29.88,NNE,25,0.0,-999.0,38,0.00,,,0.00,9,WeatherHawk,2013-02-05 22:15:00,
2013-02-05 17:20:00,35.0,13.7,29.88,NNE,25,0.0,-999.0,41,0.00,,,0.00,3,WeatherHawk,2013-02-05 22:20:00,
2013-02-05 17:25:00,34.9,13.0,29.88,NNE,24,0.0,-999.0,40,0.00,,,0.00,1,WeatherHawk,2013-02-05 22:25:00,
2013-02-05 17:30:00,34.4,13.8,29.88,NNE,24,0.0,-999.0,42,0.00,,,0.00,1,WeatherHawk,2013-02-05 22:30:00,
2013-02-05 17:35:00,34.8,14.1,29.88,NNE,24,0.0,-999.0,42,0.00,,,0.00,0,WeatherHawk,2013-02-05 22:35:00,
2013-02-05 17:40:00,34.9,13.0,29.89,North,0,1.0,-999.0,40,0.00,,,0.00,1,WeatherHawk,2013-02-05 22:40:00,
2013-02-05 17:45:00,34.7,12.8,29.89,North,2,0.0,-999.0,40,0.00,,,0.00,2,WeatherHawk,2013-02-05 22:45:00,
2013-02-05 17:50:00,34.4,13.2,29.88,NE,39,0.0,-999.0,41,0.00,,,0.00,0,WeatherHawk,2013-02-05 22:50:00,
2013-02-05 17:55:00,34.3,14.2,29.88,NNE,23,0.0,-999.0,43,0.00,,,0.00,0,WeatherHawk,2013-02-05 22:55:00,
2013-02-05 18:00:00,33.5,15.0,29.88,NNE,31,0.0,-999.0,46,0.00,,,0.00,0,WeatherHawk,2013-02-05 23:00:00,
2013-02-05 18:05:00,34.1,15.5,29.88,NNE,20,0.0,-999.0,46,0.00,,,0.00,0,WeatherHawk,2013-02-05 23:05:00,
2013-02-05 18:10:00,33.6,15.1,29.89,NNW,341,0.0,-999.0,46,0.00,,,0.00,0,WeatherHawk,2013-02-05 23:10:00,
2013-02-05 18:15:00,33.0,15.9,29.89,NNW,327,2.0,-999.0,49,0.00,,,0.00,0,WeatherHawk,2013-02-05 23:15:00,
2013-02-05 18:20:00,33.5,17.8,29.88,North,351,1.0,-999.0,52,0.00,,,0.00,0,WeatherHawk,2013-02-05 23:20:00,
2013-02-05 18:25:00,33.3,17.6,29.89,North,0,0.0,-999.0,52,0.00,,,0.00,0,WeatherHawk,2013-02-05 23:25:00,
2013-02-05 18:30:00,32.6,18.2,29.89,NE,38,0.0,-999.0,55,0.00,,,0.00,0,WeatherHawk,2013-02-05 23:30:00,
2013-02-05 18:35:00,33.0,19.4,29.89,NNW,342,1.0,-999.0,57,0.00,,,0.00,1,WeatherHawk,2013-02-05 23:35:00,
2013-02-05 18:40:00,32.6,19.0,29.90,North,351,0.0,-999.0,57,0.00,,,0.00,0,WeatherHawk,2013-02-05 23:40:00,
2013-02-05 18:45:00,33.0,19.9,29.89,North,351,0.0,-999.0,58,0.00,,,0.00,0,WeatherHawk,2013-02-05 23:45:00,
2013-02-05 18:50:00,32.6,19.9,29.90,North,351,2.0,-999.0,59,0.00,,,0.00,0,WeatherHawk,2013-02-05 23:50:00,
2013-02-05 18:55:00,33.0,20.3,29.89,North,2,2.0,-999.0,59,0.00,,,0.00,0,WeatherHawk,2013-02-05 23:55:00,
2013-02-05 19:05:00,32.4,19.3,29.90,NE,45,0.0,-999.0,58,0.00,,,0.00,0,WeatherHawk,2013-02-06 00:05:00,
2013-02-05 19:10:00,31.6,19.3,29.91,East,86,0.0,-999.0,60,0.00,,,0.00,0,WeatherHawk,2013-02-06 00:10:00,
2013-02-05 19:15:00,32.4,20.9,29.90,East,86,0.0,-999.0,62,0.00,,,0.00,0,WeatherHawk,2013-02-06 00:15:00,
2013-02-05 19:20:00,32.1,21.3,29.91,East,101,0.0,-999.0,64,0.00,,,0.00,1,WeatherHawk,2013-02-06 00:20:00,
2013-02-05 19:25:00,32.4,22.3,29.90,East,101,0.0,-999.0,66,0.00,,,0.00,0,WeatherHawk,2013-02-06 00:25:00,
2013-02-05 19:30:00,32.2,23.2,29.91,ENE,64,0.0,-999.0,69,0.00,,,0.00,0,WeatherHawk,2013-02-06 00:30:00,
2013-02-05 19:35:00,32.3,22.9,29.91,NNE,25,0.0,-999.0,68,0.00,,,0.00,0,WeatherHawk,2013-02-06 00:35:00,
2013-02-05 19:40:00,32.1,22.8,29.91,NNE,25,0.0,-999.0,68,0.00,,,0.00,1,WeatherHawk,2013-02-06 00:40:00,
2013-02-05 19:45:00,32.1,22.8,29.91,NNE,25,0.0,-999.0,68,0.00,,,0.00,0,WeatherHawk,2013-02-06 00:45:00,
2013-02-05 19:55:00,31.7,23.1,29.90,East,90,0.0,-999.0,70,0.00,,,0.00,0,WeatherHawk,2013-02-06 00:55:00,
2013-02-05 20:00:00,30.6,22.0,29.91,East,90,0.0,-999.0,70,0.00,,,0.00,0,WeatherHawk,2013-02-06 01:00:00,
2013-02-05 20:10:00,30.1,23.1,29.90,ESE,106,0.0,-999.0,75,0.00,,,0.00,0,WeatherHawk,2013-02-06 01:10:00,
2013-02-05 20:15:00,30.3,24.0,29.91,ESE,106,0.0,-999.0,77,0.00,,,0.00,0,WeatherHawk,2013-02-06 01:15:00,
2013-02-05 20:20:00,29.9,24.2,29.91,NNW,347,0.0,-999.0,79,0.00,,,0.00,0,WeatherHawk,2013-02-06 01:20:00,
2013-02-05 20:25:00,30.1,24.6,29.91,North,350,3.0,-999.0,80,0.00,,,0.00,0,WeatherHawk,2013-02-06 01:25:00,
2013-02-05 20:30:00,29.1,23.7,29.91,NNW,332,0.0,-999.0,80,0.00,,,0.00,0,WeatherHawk,2013-02-06 01:30:00,
2013-02-05 20:35:00,30.9,26.1,29.92,NNW,332,0.0,-999.0,82,0.00,,,0.00,1,WeatherHawk,2013-02-06 01:35:00,
2013-02-05 20:40:00,30.2,24.8,29.91,NNW,332,0.0,-999.0,80,0.00,,,0.00,0,WeatherHawk,2013-02-06 01:40:00,
2013-02-05 20:45:00,28.2,22.0,29.92,NW,325,0.0,-999.0,77,0.00,,,0.00,0,WeatherHawk,2013-02-06 01:45:00,
2013-02-05 20:50:00,28.0,23.0,29.91,NW,319,3.0,-999.0,81,0.00,,,0.00,1,WeatherHawk,2013-02-06 01:50:00,
2013-02-05 20:55:00,29.6,25.3,29.92,North,0,1.0,-999.0,84,0.00,,,0.00,0,WeatherHawk,2013-02-06 01:55:00,
2013-02-05 21:01:00,29.2,25.5,29.92,NNW,331,0.0,-999.0,86,0.00,,,0.00,0,WeatherHawk,2013-02-06 02:01:00,
2013-02-05 21:10:00,29.7,26.6,29.92,NW,326,0.0,-999.0,88,0.00,,,0.00,0,WeatherHawk,2013-02-06 02:10:00,
2013-02-05 21:15:00,30.7,27.8,29.91,NW,326,0.0,-999.0,89,0.00,,,0.00,1,WeatherHawk,2013-02-06 02:15:00,
2013-02-05 21:20:00,30.0,26.9,29.91,East,89,0.0,-999.0,88,0.00,,,0.00,0,WeatherHawk,2013-02-06 02:20:00,
2013-02-05 21:25:00,29.3,25.9,29.92,SE,136,0.0,-999.0,87,0.00,,,0.00,0,WeatherHawk,2013-02-06 02:25:00,
2013-02-05 21:30:00,29.7,26.6,29.92,North,351,0.0,-999.0,88,0.00,,,0.00,1,WeatherHawk,2013-02-06 02:30:00,
2013-02-05 21:35:00,29.6,26.8,29.92,North,351,0.0,-999.0,89,0.00,,,0.00,0,WeatherHawk,2013-02-06 02:35:00,
2013-02-05 21:40:00,29.6,27.0,29.93,North,351,0.0,-999.0,90,0.00,,,0.00,0,WeatherHawk,2013-02-06 02:40:00,
2013-02-05 21:45:00,28.5,26.0,29.93,North,350,0.0,-999.0,90,0.00,,,0.00,1,WeatherHawk,2013-02-06 02:45:00,
2013-02-05 21:50:00,29.3,27.0,29.94,North,351,0.0,-999.0,91,0.00,,,0.00,0,WeatherHawk,2013-02-06 02:50:00,
2013-02-05 21:55:00,30.1,28.0,29.93,North,351,0.0,-999.0,92,0.00,,,0.00,0,WeatherHawk,2013-02-06 02:55:00,
2013-02-05 22:00:00,28.6,26.4,29.94,NNW,331,2.0,-999.0,91,0.00,,,0.00,0,WeatherHawk,2013-02-06 03:00:00,
2013-02-05 22:05:00,28.6,26.3,29.93,NNW,329,0.0,-999.0,91,0.00,,,0.00,1,WeatherHawk,2013-02-06 03:05:00,
2013-02-05 22:10:00,29.5,27.5,29.93,NW,325,2.0,-999.0,92,0.00,,,0.00,1,WeatherHawk,2013-02-06 03:10:00,
2013-02-05 22:15:00,29.6,27.6,29.94,NW,321,1.0,-999.0,92,0.00,,,0.00,1,WeatherHawk,2013-02-06 03:15:00,
2013-02-05 22:20:00,29.8,28.1,29.93,NW,321,0.0,-999.0,93,0.00,,,0.00,0,WeatherHawk,2013-02-06 03:20:00,
2013-02-05 22:25:00,29.5,27.7,29.92,NW,321,0.0,-999.0,93,0.00,,,0.00,0,WeatherHawk,2013-02-06 03:25:00,
2013-02-05 22:30:00,30.1,28.3,29.94,NW,321,0.0,-999.0,93,0.00,,,0.00,0,WeatherHawk,2013-02-06 03:30:00,
2013-02-05 22:35:00,30.2,28.7,29.94,NW,311,0.0,-999.0,94,0.00,,,0.00,1,WeatherHawk,2013-02-06 03:35:00,
2013-02-05 22:40:00,30.4,29.2,29.93,NW,305,0.0,-999.0,95,0.00,,,0.00,0,WeatherHawk,2013-02-06 03:40:00,
2013-02-05 22:45:00,30.3,29.1,29.94,NW,318,2.0,-999.0,95,0.00,,,0.00,0,WeatherHawk,2013-02-06 03:45:00,
2013-02-05 22:50:00,30.5,29.2,29.95,WNW,298,3.0,-999.0,95,0.00,,,0.00,0,WeatherHawk,2013-02-06 03:50:00,
2013-02-05 22:55:00,30.6,29.6,29.95,NW,306,4.0,-999.0,96,0.00,,,0.00,2,WeatherHawk,2013-02-06 03:55:00,
2013-02-05 23:00:00,30.7,29.7,29.94,NNW,327,3.0,-999.0,96,0.00,,,0.00,0,WeatherHawk,2013-02-06 04:00:00,
2013-02-05 23:05:00,30.9,29.9,29.94,NW,322,3.0,-999.0,96,0.00,,,0.00,0,WeatherHawk,2013-02-06 04:05:00,
2013-02-05 23:10:00,31.5,30.5,29.94,NW,316,3.0,-999.0,96,0.00,,,0.00,0,WeatherHawk,2013-02-06 04:10:00,
2013-02-05 23:15:00,31.5,30.5,29.94,NW,304,3.0,-999.0,96,0.00,,,0.00,0,WeatherHawk,2013-02-06 04:15:00,
2013-02-05 23:20:00,31.5,30.8,29.95,NW,321,1.0,-999.0,97,0.00,,,0.00,0,WeatherHawk,2013-02-06 04:20:00,
2013-02-05 23:25:00,31.3,30.6,29.95,NW,325,1.0,-999.0,97,0.00,,,0.00,0,WeatherHawk,2013-02-06 04:25:00,
2013-02-05 23:30:00,32.1,31.3,29.95,NW,317,0.0,-999.0,97,0.00,,,0.00,0,WeatherHawk,2013-02-06 04:30:00,
2013-02-05 23:35:00,32.3,31.5,29.94,NW,318,0.0,-999.0,97,0.00,,,0.00,0,WeatherHawk,2013-02-06 04:35:00,
2013-02-05 23:40:00,32.5,32.0,29.94,NW,318,0.0,-999.0,98,0.00,,,0.00,0,WeatherHawk,2013-02-06 04:40:00,
2013-02-05 23:45:00,32.7,32.2,29.95,NW,318,0.0,-999.0,98,0.00,,,0.00,1,WeatherHawk,2013-02-06 04:45:00,
2013-02-05 23:50:00,32.5,32.0,29.96,NW,318,0.0,-999.0,98,0.00,,,0.00,0,WeatherHawk,2013-02-06 04:50:00,
2013-02-05 23:55:00,32.5,32.3,29.94,NW,318,0.0,-999.0,99,0.00,,,0.00,0,WeatherHawk,2013-02-06 04:55:00,